sensor_id;sensor_type;location;lat;lon;timestamp;pressure;altitude;pressure_sealevel;temperature;humidity
11036;BME280;5571;48.110;-1.706;2022-07-23T00:00:07;101711.38;;;17.18;100.00
11036;BME280;5571;48.110;-1.706;2022-07-23T00:02:33;101703.03;;;17.10;100.00
11036;BME280;5571;48.110;-1.706;2022-07-23T00:04:59;101705.69;;;17.10;100.00
11036;BME280;5571;48.110;-1.706;2022-07-23T00:07:24;101696.91;;;17.09;100.00
11036;BME280;5571;48.110;-1.706;2022-07-23T00:09:49;101698.69;;;17.09;100.00
11036;BME280;5571;48.110;-1.706;2022-07-23T00:12:15;101698.88;;;17.06;100.00
11036;BME280;5571;48.110;-1.706;2022-07-23T00:14:40;101703.66;;;17.00;100.00
11036;BME280;5571;48.110;-1.706;2022-07-23T00:17:06;101698.47;;;16.85;100.00
11036;BME280;5571;48.110;-1.706;2022-07-23T00:19:31;101704.09;;;16.80;100.00
11036;BME280;5571;48.110;-1.706;2022-07-23T00:21:56;101706.66;;;16.82;100.00
11036;BME280;5571;48.110;-1.706;2022-07-23T00:24:22;101696.97;;;16.81;100.00
11036;BME280;5571;48.110;-1.706;2022-07-23T00:26:47;101687.66;;;16.88;100.00
11036;BME280;5571;48.110;-1.706;2022-07-23T00:29:12;101696.38;;;16.90;100.00
11036;BME280;5571;48.110;-1.706;2022-07-23T00:31:38;101690.00;;;16.92;100.00
11036;BME280;5571;48.110;-1.706;2022-07-23T00:34:03;101690.78;;;16.94;100.00
11036;BME280;5571;48.110;-1.706;2022-07-23T00:36:29;101692.19;;;17.00;100.00
11036;BME280;5571;48.110;-1.706;2022-07-23T00:38:56;101686.66;;;17.03;100.00
11036;BME280;5571;48.110;-1.706;2022-07-23T00:41:22;101685.50;;;17.07;100.00
11036;BME280;5571;48.110;-1.706;2022-07-23T00:43:47;101678.41;;;17.08;100.00
11036;BME280;5571;48.110;-1.706;2022-07-23T00:46:12;101677.53;;;17.07;100.00
11036;BME280;5571;48.110;-1.706;2022-07-23T00:48:38;101683.38;;;16.99;100.00
11036;BME280;5571;48.110;-1.706;2022-07-23T00:51:03;101680.16;;;16.94;100.00
11036;BME280;5571;48.110;-1.706;2022-07-23T00:53:29;101680.25;;;16.93;100.00
11036;BME280;5571;48.110;-1.706;2022-07-23T00:55:57;101679.22;;;16.95;100.00
11036;BME280;5571;48.110;-1.706;2022-07-23T00:58:23;101684.66;;;16.80;100.00
11036;BME280;5571;48.110;-1.706;2022-07-23T01:00:49;101682.94;;;16.79;100.00
11036;BME280;5571;48.110;-1.706;2022-07-23T01:03:14;101686.00;;;16.73;100.00
11036;BME280;5571;48.110;-1.706;2022-07-23T01:05:40;101691.25;;;16.60;100.00
11036;BME280;5571;48.110;-1.706;2022-07-23T01:08:05;101680.78;;;16.57;100.00
11036;BME280;5571;48.110;-1.706;2022-07-23T01:10:31;101684.31;;;16.58;100.00
11036;BME280;5571;48.110;-1.706;2022-07-23T01:12:58;101681.38;;;16.48;100.00
11036;BME280;5571;48.110;-1.706;2022-07-23T01:15:23;101676.56;;;16.40;100.00
11036;BME280;5571;48.110;-1.706;2022-07-23T01:17:49;101678.84;;;16.32;100.00
11036;BME280;5571;48.110;-1.706;2022-07-23T01:20:15;101671.38;;;16.25;100.00
11036;BME280;5571;48.110;-1.706;2022-07-23T01:22:40;101673.63;;;16.17;100.00
11036;BME280;5571;48.110;-1.706;2022-07-23T01:25:06;101669.75;;;16.22;100.00
11036;BME280;5571;48.110;-1.706;2022-07-23T01:27:31;101665.38;;;16.21;100.00
11036;BME280;5571;48.110;-1.706;2022-07-23T01:29:59;101670.09;;;16.16;100.00
11036;BME280;5571;48.110;-1.706;2022-07-23T01:32:25;101675.91;;;16.08;100.00
11036;BME280;5571;48.110;-1.706;2022-07-23T01:34:50;101665.00;;;16.13;100.00
11036;BME280;5571;48.110;-1.706;2022-07-23T01:37:16;101664.53;;;16.21;100.00
11036;BME280;5571;48.110;-1.706;2022-07-23T01:39:41;101655.91;;;16.17;100.00
11036;BME280;5571;48.110;-1.706;2022-07-23T01:42:07;101654.69;;;16.08;100.00
11036;BME280;5571;48.110;-1.706;2022-07-23T01:44:32;101654.59;;;16.10;100.00
11036;BME280;5571;48.110;-1.706;2022-07-23T01:46:57;101651.09;;;15.95;100.00
11036;BME280;5571;48.110;-1.706;2022-07-23T01:49:23;101646.16;;;15.89;100.00
11036;BME280;5571;48.110;-1.706;2022-07-23T01:51:48;101648.44;;;15.95;100.00
11036;BME280;5571;48.110;-1.706;2022-07-23T01:54:30;101652.78;;;15.82;100.00
11036;BME280;5571;48.110;-1.706;2022-07-23T01:56:57;101647.41;;;15.84;100.00
11036;BME280;5571;48.110;-1.706;2022-07-23T01:59:22;101656.56;;;15.78;100.00
11036;BME280;5571;48.110;-1.706;2022-07-23T02:01:48;101651.28;;;15.78;100.00
11036;BME280;5571;48.110;-1.706;2022-07-23T02:04:16;101650.34;;;15.79;100.00
11036;BME280;5571;48.110;-1.706;2022-07-23T02:06:41;101650.41;;;15.78;100.00
11036;BME280;5571;48.110;-1.706;2022-07-23T02:09:07;101652.50;;;15.87;100.00
11036;BME280;5571;48.110;-1.706;2022-07-23T02:11:32;101642.41;;;15.93;100.00
11036;BME280;5571;48.110;-1.706;2022-07-23T02:13:58;101646.56;;;15.97;100.00
11036;BME280;5571;48.110;-1.706;2022-07-23T02:16:23;101656.59;;;15.92;100.00
11036;BME280;5571;48.110;-1.706;2022-07-23T02:18:49;101656.00;;;15.87;100.00
11036;BME280;5571;48.110;-1.706;2022-07-23T02:21:14;101659.53;;;15.88;100.00
11036;BME280;5571;48.110;-1.706;2022-07-23T02:23:39;101657.44;;;15.93;100.00
11036;BME280;5571;48.110;-1.706;2022-07-23T02:26:05;101670.59;;;15.94;100.00
11036;BME280;5571;48.110;-1.706;2022-07-23T02:28:30;101677.69;;;15.94;100.00
11036;BME280;5571;48.110;-1.706;2022-07-23T02:30:56;101681.59;;;15.88;100.00
11036;BME280;5571;48.110;-1.706;2022-07-23T02:33:21;101679.75;;;15.75;100.00
11036;BME280;5571;48.110;-1.706;2022-07-23T02:35:47;101672.75;;;15.74;100.00
11036;BME280;5571;48.110;-1.706;2022-07-23T02:38:12;101673.88;;;15.70;100.00
11036;BME280;5571;48.110;-1.706;2022-07-23T02:40:37;101670.03;;;15.75;100.00
11036;BME280;5571;48.110;-1.706;2022-07-23T02:43:03;101675.09;;;15.64;100.00
11036;BME280;5571;48.110;-1.706;2022-07-23T02:45:28;101672.81;;;15.58;100.00
11036;BME280;5571;48.110;-1.706;2022-07-23T02:47:54;101677.28;;;15.57;100.00
11036;BME280;5571;48.110;-1.706;2022-07-23T02:50:19;101682.06;;;15.51;100.00
11036;BME280;5571;48.110;-1.706;2022-07-23T02:52:44;101686.44;;;15.36;100.00
11036;BME280;5571;48.110;-1.706;2022-07-23T02:55:10;101680.84;;;15.27;100.00
11036;BME280;5571;48.110;-1.706;2022-07-23T02:57:36;101682.19;;;15.34;100.00
11036;BME280;5571;48.110;-1.706;2022-07-23T03:00:03;101681.63;;;15.43;100.00
11036;BME280;5571;48.110;-1.706;2022-07-23T03:02:29;101676.53;;;15.40;100.00
11036;BME280;5571;48.110;-1.706;2022-07-23T03:04:54;101666.34;;;15.48;100.00
11036;BME280;5571;48.110;-1.706;2022-07-23T03:07:19;101673.25;;;15.50;100.00
11036;BME280;5571;48.110;-1.706;2022-07-23T03:09:45;101670.97;;;15.44;100.00
11036;BME280;5571;48.110;-1.706;2022-07-23T03:12:10;101670.06;;;15.30;100.00
11036;BME280;5571;48.110;-1.706;2022-07-23T03:14:36;101674.03;;;15.37;100.00
11036;BME280;5571;48.110;-1.706;2022-07-23T03:17:01;101679.59;;;15.32;100.00
11036;BME280;5571;48.110;-1.706;2022-07-23T03:19:26;101676.69;;;15.37;100.00
11036;BME280;5571;48.110;-1.706;2022-07-23T03:21:52;101668.97;;;15.48;100.00
11036;BME280;5571;48.110;-1.706;2022-07-23T03:24:17;101680.75;;;15.58;100.00
11036;BME280;5571;48.110;-1.706;2022-07-23T03:26:43;101670.66;;;15.64;100.00
11036;BME280;5571;48.110;-1.706;2022-07-23T03:29:09;101675.75;;;15.67;100.00
11036;BME280;5571;48.110;-1.706;2022-07-23T03:31:34;101672.94;;;15.71;100.00
11036;BME280;5571;48.110;-1.706;2022-07-23T03:34:00;101667.81;;;15.67;100.00
11036;BME280;5571;48.110;-1.706;2022-07-23T03:36:26;101663.09;;;15.73;100.00
11036;BME280;5571;48.110;-1.706;2022-07-23T03:38:52;101661.38;;;15.72;100.00
11036;BME280;5571;48.110;-1.706;2022-07-23T03:41:18;101669.59;;;15.67;100.00
11036;BME280;5571;48.110;-1.706;2022-07-23T03:43:44;101666.34;;;15.48;100.00
11036;BME280;5571;48.110;-1.706;2022-07-23T03:46:09;101674.84;;;15.23;100.00
11036;BME280;5571;48.110;-1.706;2022-07-23T03:48:35;101673.06;;;15.23;100.00
11036;BME280;5571;48.110;-1.706;2022-07-23T03:51:01;101665.63;;;15.30;100.00
11036;BME280;5571;48.110;-1.706;2022-07-23T03:53:26;101662.44;;;15.39;100.00
11036;BME280;5571;48.110;-1.706;2022-07-23T03:55:52;101663.94;;;15.43;100.00
11036;BME280;5571;48.110;-1.706;2022-07-23T03:58:17;101665.25;;;15.52;100.00
11036;BME280;5571;48.110;-1.706;2022-07-23T04:00:42;101665.03;;;15.55;100.00
11036;BME280;5571;48.110;-1.706;2022-07-23T04:03:08;101666.47;;;15.60;100.00
11036;BME280;5571;48.110;-1.706;2022-07-23T04:05:33;101674.34;;;15.62;100.00
11036;BME280;5571;48.110;-1.706;2022-07-23T04:07:59;101665.63;;;15.60;100.00
11036;BME280;5571;48.110;-1.706;2022-07-23T04:10:24;101676.41;;;15.41;100.00
11036;BME280;5571;48.110;-1.706;2022-07-23T04:12:49;101682.56;;;15.42;100.00
11036;BME280;5571;48.110;-1.706;2022-07-23T04:15:15;101684.38;;;15.41;100.00
11036;BME280;5571;48.110;-1.706;2022-07-23T04:17:40;101689.72;;;15.26;100.00
11036;BME280;5571;48.110;-1.706;2022-07-23T04:20:06;101694.84;;;15.29;100.00
11036;BME280;5571;48.110;-1.706;2022-07-23T04:22:31;101697.75;;;15.24;100.00
11036;BME280;5571;48.110;-1.706;2022-07-23T04:24:57;101697.59;;;15.11;100.00
11036;BME280;5571;48.110;-1.706;2022-07-23T04:27:22;101693.91;;;15.14;100.00
11036;BME280;5571;48.110;-1.706;2022-07-23T04:29:47;101693.84;;;15.15;100.00
11036;BME280;5571;48.110;-1.706;2022-07-23T04:32:13;101694.38;;;14.91;100.00
11036;BME280;5571;48.110;-1.706;2022-07-23T04:34:38;101681.91;;;14.93;100.00
11036;BME280;5571;48.110;-1.706;2022-07-23T04:37:04;101687.59;;;15.01;100.00
11036;BME280;5571;48.110;-1.706;2022-07-23T04:39:29;101682.16;;;15.04;100.00
11036;BME280;5571;48.110;-1.706;2022-07-23T04:41:55;101687.19;;;15.08;100.00
11036;BME280;5571;48.110;-1.706;2022-07-23T04:44:20;101683.50;;;15.11;100.00
11036;BME280;5571;48.110;-1.706;2022-07-23T04:46:45;101681.38;;;15.17;100.00
11036;BME280;5571;48.110;-1.706;2022-07-23T04:49:11;101693.97;;;15.28;100.00
11036;BME280;5571;48.110;-1.706;2022-07-23T04:51:36;101700.03;;;15.30;100.00
11036;BME280;5571;48.110;-1.706;2022-07-23T04:54:01;101699.91;;;15.17;100.00
11036;BME280;5571;48.110;-1.706;2022-07-23T04:56:27;101696.22;;;15.20;100.00
11036;BME280;5571;48.110;-1.706;2022-07-23T04:58:52;101695.00;;;15.26;100.00
11036;BME280;5571;48.110;-1.706;2022-07-23T05:01:18;101693.78;;;15.31;100.00
11036;BME280;5571;48.110;-1.706;2022-07-23T05:03:43;101689.84;;;15.38;100.00
11036;BME280;5571;48.110;-1.706;2022-07-23T05:06:09;101691.91;;;15.33;100.00
11036;BME280;5571;48.110;-1.706;2022-07-23T05:08:34;101689.78;;;15.40;100.00
11036;BME280;5571;48.110;-1.706;2022-07-23T05:10:59;101691.38;;;15.42;100.00
11036;BME280;5571;48.110;-1.706;2022-07-23T05:13:25;101690.53;;;15.42;100.00
11036;BME280;5571;48.110;-1.706;2022-07-23T05:15:50;101691.81;;;15.50;100.00
11036;BME280;5571;48.110;-1.706;2022-07-23T05:18:16;101694.47;;;15.50;100.00
11036;BME280;5571;48.110;-1.706;2022-07-23T05:20:41;101699.41;;;15.56;100.00
11036;BME280;5571;48.110;-1.706;2022-07-23T05:23:07;101691.84;;;15.64;100.00
11036;BME280;5571;48.110;-1.706;2022-07-23T05:25:33;101699.47;;;15.55;100.00
11036;BME280;5571;48.110;-1.706;2022-07-23T05:27:58;101704.16;;;15.65;100.00
11036;BME280;5571;48.110;-1.706;2022-07-23T05:30:23;101710.84;;;15.57;100.00
11036;BME280;5571;48.110;-1.706;2022-07-23T05:32:49;101706.88;;;15.64;100.00
11036;BME280;5571;48.110;-1.706;2022-07-23T05:35:14;101708.91;;;15.75;100.00
11036;BME280;5571;48.110;-1.706;2022-07-23T05:37:40;101714.38;;;15.72;100.00
11036;BME280;5571;48.110;-1.706;2022-07-23T05:40:07;101717.22;;;15.68;100.00
11036;BME280;5571;48.110;-1.706;2022-07-23T05:42:37;101722.41;;;15.56;100.00
11036;BME280;5571;48.110;-1.706;2022-07-23T05:45:04;101724.50;;;15.49;100.00
11036;BME280;5571;48.110;-1.706;2022-07-23T05:47:43;101722.97;;;15.45;100.00
11036;BME280;5571;48.110;-1.706;2022-07-23T05:50:09;101726.31;;;15.49;100.00
11036;BME280;5571;48.110;-1.706;2022-07-23T05:52:35;101725.81;;;15.42;100.00
11036;BME280;5571;48.110;-1.706;2022-07-23T05:55:00;101729.91;;;15.48;100.00
11036;BME280;5571;48.110;-1.706;2022-07-23T05:57:26;101732.03;;;15.41;100.00
11036;BME280;5571;48.110;-1.706;2022-07-23T05:59:51;101732.03;;;15.41;100.00
11036;BME280;5571;48.110;-1.706;2022-07-23T06:02:16;101726.84;;;15.55;100.00
11036;BME280;5571;48.110;-1.706;2022-07-23T06:04:42;101726.75;;;15.57;100.00
11036;BME280;5571;48.110;-1.706;2022-07-23T06:07:07;101728.00;;;15.65;100.00
11036;BME280;5571;48.110;-1.706;2022-07-23T06:09:32;101732.63;;;15.62;100.00
11036;BME280;5571;48.110;-1.706;2022-07-23T06:11:58;101721.88;;;15.79;100.00
11036;BME280;5571;48.110;-1.706;2022-07-23T06:14:23;101726.53;;;15.90;100.00
11036;BME280;5571;48.110;-1.706;2022-07-23T06:16:49;101727.78;;;15.98;100.00
11036;BME280;5571;48.110;-1.706;2022-07-23T06:19:14;101737.94;;;16.06;100.00
11036;BME280;5571;48.110;-1.706;2022-07-23T06:21:39;101731.50;;;16.10;100.00
11036;BME280;5571;48.110;-1.706;2022-07-23T06:24:05;101733.75;;;16.16;100.00
11036;BME280;5571;48.110;-1.706;2022-07-23T06:26:31;101733.19;;;16.25;100.00
11036;BME280;5571;48.110;-1.706;2022-07-23T06:28:56;101740.19;;;16.12;100.00
11036;BME280;5571;48.110;-1.706;2022-07-23T06:31:21;101746.72;;;16.21;100.00
11036;BME280;5571;48.110;-1.706;2022-07-23T06:33:47;101744.78;;;16.24;100.00
11036;BME280;5571;48.110;-1.706;2022-07-23T06:36:12;101753.38;;;16.28;100.00
11036;BME280;5571;48.110;-1.706;2022-07-23T06:38:37;101755.38;;;16.38;100.00
11036;BME280;5571;48.110;-1.706;2022-07-23T06:41:03;101757.44;;;16.47;100.00
11036;BME280;5571;48.110;-1.706;2022-07-23T06:43:30;101756.41;;;16.36;100.00
11036;BME280;5571;48.110;-1.706;2022-07-23T06:45:56;101752.63;;;16.54;100.00
11036;BME280;5571;48.110;-1.706;2022-07-23T06:48:21;101750.75;;;16.70;100.00
11036;BME280;5571;48.110;-1.706;2022-07-23T06:50:47;101746.47;;;16.82;100.00
11036;BME280;5571;48.110;-1.706;2022-07-23T06:53:13;101751.03;;;16.51;100.00
11036;BME280;5571;48.110;-1.706;2022-07-23T06:55:38;101743.56;;;16.58;100.00
11036;BME280;5571;48.110;-1.706;2022-07-23T06:58:05;101744.56;;;16.70;100.00
11036;BME280;5571;48.110;-1.706;2022-07-23T07:00:30;101754.22;;;16.56;100.00
11036;BME280;5571;48.110;-1.706;2022-07-23T07:02:57;101754.66;;;16.65;100.00
11036;BME280;5571;48.110;-1.706;2022-07-23T07:05:23;101750.44;;;16.75;100.00
11036;BME280;5571;48.110;-1.706;2022-07-23T07:07:50;101754.00;;;17.02;100.00
11036;BME280;5571;48.110;-1.706;2022-07-23T07:10:15;101756.56;;;17.04;100.00
11036;BME280;5571;48.110;-1.706;2022-07-23T07:12:42;101759.03;;;17.33;100.00
11036;BME280;5571;48.110;-1.706;2022-07-23T07:15:08;101761.47;;;17.36;100.00
11036;BME280;5571;48.110;-1.706;2022-07-23T07:17:34;101763.75;;;17.42;100.00
11036;BME280;5571;48.110;-1.706;2022-07-23T07:19:59;101761.97;;;17.56;100.00
11036;BME280;5571;48.110;-1.706;2022-07-23T07:22:24;101759.06;;;17.73;100.00
11036;BME280;5571;48.110;-1.706;2022-07-23T07:24:50;101765.88;;;17.77;100.00
11036;BME280;5571;48.110;-1.706;2022-07-23T07:27:15;101761.88;;;17.97;100.00
11036;BME280;5571;48.110;-1.706;2022-07-23T07:29:40;101764.63;;;17.95;100.00
11036;BME280;5571;48.110;-1.706;2022-07-23T07:32:06;101767.66;;;18.03;100.00
11036;BME280;5571;48.110;-1.706;2022-07-23T07:34:31;101770.31;;;18.03;100.00
11036;BME280;5571;48.110;-1.706;2022-07-23T07:36:57;101765.19;;;18.00;100.00
11036;BME280;5571;48.110;-1.706;2022-07-23T07:39:22;101766.34;;;18.21;100.00
11036;BME280;5571;48.110;-1.706;2022-07-23T07:41:47;101769.34;;;18.42;100.00
11036;BME280;5571;48.110;-1.706;2022-07-23T07:44:13;101767.22;;;18.47;100.00
11036;BME280;5571;48.110;-1.706;2022-07-23T07:46:38;101761.91;;;18.60;100.00
11036;BME280;5571;48.110;-1.706;2022-07-23T07:49:03;101770.97;;;18.70;100.00
11036;BME280;5571;48.110;-1.706;2022-07-23T07:51:29;101777.00;;;18.72;100.00
11036;BME280;5571;48.110;-1.706;2022-07-23T07:53:54;101781.91;;;18.53;100.00
11036;BME280;5571;48.110;-1.706;2022-07-23T07:56:20;101777.00;;;18.47;100.00
11036;BME280;5571;48.110;-1.706;2022-07-23T07:58:45;101779.03;;;18.68;100.00
11036;BME280;5571;48.110;-1.706;2022-07-23T08:01:10;101780.63;;;18.84;100.00
11036;BME280;5571;48.110;-1.706;2022-07-23T08:03:36;101780.91;;;18.92;100.00
11036;BME280;5571;48.110;-1.706;2022-07-23T08:06:01;101787.50;;;18.99;100.00
11036;BME280;5571;48.110;-1.706;2022-07-23T08:08:26;101781.22;;;19.00;100.00
11036;BME280;5571;48.110;-1.706;2022-07-23T08:10:52;101785.25;;;19.05;100.00
11036;BME280;5571;48.110;-1.706;2022-07-23T08:13:17;101777.41;;;18.91;100.00
11036;BME280;5571;48.110;-1.706;2022-07-23T08:15:43;101779.66;;;18.72;100.00
11036;BME280;5571;48.110;-1.706;2022-07-23T08:18:09;101778.69;;;18.86;100.00
11036;BME280;5571;48.110;-1.706;2022-07-23T08:20:35;101776.28;;;19.06;100.00
11036;BME280;5571;48.110;-1.706;2022-07-23T08:23:06;101774.91;;;19.37;100.00
11036;BME280;5571;48.110;-1.706;2022-07-23T08:25:40;101784.88;;;19.70;100.00
11036;BME280;5571;48.110;-1.706;2022-07-23T08:28:09;101782.91;;;19.96;100.00
11036;BME280;5571;48.110;-1.706;2022-07-23T08:30:35;101772.63;;;20.13;100.00
11036;BME280;5571;48.110;-1.706;2022-07-23T08:33:03;101780.00;;;20.34;100.00
11036;BME280;5571;48.110;-1.706;2022-07-23T08:35:31;101779.03;;;20.35;100.00
11036;BME280;5571;48.110;-1.706;2022-07-23T08:37:58;101780.16;;;20.20;100.00
11036;BME280;5571;48.110;-1.706;2022-07-23T08:40:28;101789.03;;;20.20;100.00
11036;BME280;5571;48.110;-1.706;2022-07-23T08:42:53;101791.25;;;19.91;100.00
11036;BME280;5571;48.110;-1.706;2022-07-23T08:45:20;101786.13;;;19.77;100.00
11036;BME280;5571;48.110;-1.706;2022-07-23T08:47:57;101780.78;;;20.23;100.00
11036;BME280;5571;48.110;-1.706;2022-07-23T08:50:24;101790.44;;;20.59;98.93
11036;BME280;5571;48.110;-1.706;2022-07-23T08:52:50;101786.53;;;20.96;97.64
11036;BME280;5571;48.110;-1.706;2022-07-23T08:55:21;101797.47;;;21.16;96.78
11036;BME280;5571;48.110;-1.706;2022-07-23T08:57:51;101790.66;;;20.89;96.58
11036;BME280;5571;48.110;-1.706;2022-07-23T09:00:18;101789.38;;;20.16;100.00
11036;BME280;5571;48.110;-1.706;2022-07-23T09:02:44;101798.88;;;19.85;100.00
11036;BME280;5571;48.110;-1.706;2022-07-23T09:05:11;101792.19;;;19.79;100.00
11036;BME280;5571;48.110;-1.706;2022-07-23T09:07:38;101783.19;;;20.04;100.00
11036;BME280;5571;48.110;-1.706;2022-07-23T09:10:23;101784.97;;;20.38;99.03
11036;BME280;5571;48.110;-1.706;2022-07-23T09:12:48;101781.09;;;20.65;96.21
11036;BME280;5571;48.110;-1.706;2022-07-23T09:15:14;101783.34;;;21.02;93.75
11036;BME280;5571;48.110;-1.706;2022-07-23T09:17:41;101779.31;;;21.30;91.27
11036;BME280;5571;48.110;-1.706;2022-07-23T09:20:15;101770.22;;;21.65;91.50
11036;BME280;5571;48.110;-1.706;2022-07-23T09:22:47;101777.75;;;21.92;89.26
11036;BME280;5571;48.110;-1.706;2022-07-23T09:25:16;101779.31;;;21.94;87.58
11036;BME280;5571;48.110;-1.706;2022-07-23T09:27:46;101771.94;;;21.86;88.71
11036;BME280;5571;48.110;-1.706;2022-07-23T09:30:12;101783.34;;;21.57;88.33
11036;BME280;5571;48.110;-1.706;2022-07-23T09:32:41;101789.78;;;21.33;90.67
11036;BME280;5571;48.110;-1.706;2022-07-23T09:35:07;101789.56;;;21.14;90.89
11036;BME280;5571;48.110;-1.706;2022-07-23T09:37:33;101788.09;;;21.10;90.81
11036;BME280;5571;48.110;-1.706;2022-07-23T09:40:09;101792.38;;;20.79;92.08
11036;BME280;5571;48.110;-1.706;2022-07-23T09:42:37;101792.00;;;20.95;92.14
11036;BME280;5571;48.110;-1.706;2022-07-23T09:45:02;101786.78;;;20.93;89.18
11036;BME280;5571;48.110;-1.706;2022-07-23T09:47:31;101785.44;;;21.10;87.59
11036;BME280;5571;48.110;-1.706;2022-07-23T09:52:32;101788.78;;;21.66;86.23
11036;BME280;5571;48.110;-1.706;2022-07-23T09:55:02;101779.44;;;21.93;85.21
11036;BME280;5571;48.110;-1.706;2022-07-23T09:57:28;101774.81;;;22.15;83.68
11036;BME280;5571;48.110;-1.706;2022-07-23T09:59:57;101783.81;;;22.35;82.75
11036;BME280;5571;48.110;-1.706;2022-07-23T10:02:24;101781.78;;;22.48;80.57
11036;BME280;5571;48.110;-1.706;2022-07-23T10:04:53;101783.38;;;22.60;79.41
11036;BME280;5571;48.110;-1.706;2022-07-23T10:07:21;101778.69;;;22.53;80.13
11036;BME280;5571;48.110;-1.706;2022-07-23T10:09:48;101778.69;;;22.53;80.23
11036;BME280;5571;48.110;-1.706;2022-07-23T10:12:15;101780.34;;;22.44;77.49
11036;BME280;5571;48.110;-1.706;2022-07-23T10:14:47;101774.97;;;22.44;77.76
11036;BME280;5571;48.110;-1.706;2022-07-23T10:17:13;101770.25;;;22.57;78.07
11036;BME280;5571;48.110;-1.706;2022-07-23T10:19:39;101767.84;;;22.64;74.48
11036;BME280;5571;48.110;-1.706;2022-07-23T10:22:11;101765.06;;;22.65;74.01
11036;BME280;5571;48.110;-1.706;2022-07-23T10:30:30;101764.06;;;22.97;71.89
11036;BME280;5571;48.110;-1.706;2022-07-23T10:33:20;101765.38;;;23.12;70.93
11036;BME280;5571;48.110;-1.706;2022-07-23T10:35:58;101773.41;;;23.21;69.41
11036;BME280;5571;48.110;-1.706;2022-07-23T10:41:03;101772.03;;;23.37;69.73
11036;BME280;5571;48.110;-1.706;2022-07-23T10:43:30;101752.97;;;23.40;68.58
11036;BME280;5571;48.110;-1.706;2022-07-23T10:46:23;101763.47;;;23.52;68.56
11036;BME280;5571;48.110;-1.706;2022-07-23T10:54:43;101766.41;;;23.49;65.09
11036;BME280;5571;48.110;-1.706;2022-07-23T10:57:13;101766.00;;;23.54;64.78
11036;BME280;5571;48.110;-1.706;2022-07-23T11:02:29;101756.25;;;23.43;64.07
11036;BME280;5571;48.110;-1.706;2022-07-23T11:05:00;101754.78;;;23.39;64.35
11036;BME280;5571;48.110;-1.706;2022-07-23T11:07:26;101750.44;;;23.29;62.38
11036;BME280;5571;48.110;-1.706;2022-07-23T11:09:52;101754.81;;;23.30;62.26
11036;BME280;5571;48.110;-1.706;2022-07-23T11:17:25;101762.16;;;23.66;59.23
11036;BME280;5571;48.110;-1.706;2022-07-23T11:22:36;101744.19;;;24.05;59.39
11036;BME280;5571;48.110;-1.706;2022-07-23T11:25:02;101751.66;;;24.21;59.03
11036;BME280;5571;48.110;-1.706;2022-07-23T11:27:45;101756.91;;;24.22;58.44
11036;BME280;5571;48.110;-1.706;2022-07-23T11:32:52;101746.47;;;24.46;57.74
11036;BME280;5571;48.110;-1.706;2022-07-23T11:35:23;101743.84;;;24.64;57.43
11036;BME280;5571;48.110;-1.706;2022-07-23T11:37:52;101741.25;;;24.82;56.76
11036;BME280;5571;48.110;-1.706;2022-07-23T11:40:24;101734.63;;;25.04;56.41
11036;BME280;5571;48.110;-1.706;2022-07-23T11:42:59;101735.63;;;25.20;55.76
11036;BME280;5571;48.110;-1.706;2022-07-23T11:45:34;101729.31;;;25.29;53.32
11036;BME280;5571;48.110;-1.706;2022-07-23T11:48:00;101733.31;;;25.08;52.00
11036;BME280;5571;48.110;-1.706;2022-07-23T11:50:25;101728.88;;;25.16;53.48
11036;BME280;5571;48.110;-1.706;2022-07-23T11:52:52;101736.22;;;25.14;51.46
11036;BME280;5571;48.110;-1.706;2022-07-23T11:55:17;101736.41;;;24.85;51.37
11036;BME280;5571;48.110;-1.706;2022-07-23T11:57:44;101725.56;;;24.77;51.45
11036;BME280;5571;48.110;-1.706;2022-07-23T12:00:16;101732.84;;;24.85;51.42
11036;BME280;5571;48.110;-1.706;2022-07-23T12:02:44;101727.22;;;24.78;50.69
11036;BME280;5571;48.110;-1.706;2022-07-23T12:05:19;101734.38;;;24.97;50.77
11036;BME280;5571;48.110;-1.706;2022-07-23T12:07:47;101735.47;;;25.22;50.72
11036;BME280;5571;48.110;-1.706;2022-07-23T12:12:49;101724.91;;;25.81;49.18
11036;BME280;5571;48.110;-1.706;2022-07-23T12:15:17;101727.84;;;25.88;49.38
11036;BME280;5571;48.110;-1.706;2022-07-23T12:17:46;101725.16;;;25.88;48.72
11036;BME280;5571;48.110;-1.706;2022-07-23T12:20:35;101720.59;;;25.89;48.87
11036;BME280;5571;48.110;-1.706;2022-07-23T12:23:02;101716.06;;;25.89;47.49
11036;BME280;5571;48.110;-1.706;2022-07-23T12:25:30;101714.47;;;26.04;48.34
11036;BME280;5571;48.110;-1.706;2022-07-23T12:28:00;101712.09;;;26.27;48.13
11036;BME280;5571;48.110;-1.706;2022-07-23T12:30:37;101720.41;;;26.16;47.05
11036;BME280;5571;48.110;-1.706;2022-07-23T12:33:04;101717.16;;;26.30;47.10
11036;BME280;5571;48.110;-1.706;2022-07-23T12:35:38;101701.94;;;26.47;46.73
11036;BME280;5571;48.110;-1.706;2022-07-23T12:38:08;101698.78;;;26.67;46.48
11036;BME280;5571;48.110;-1.706;2022-07-23T12:40:42;101701.75;;;26.90;46.12
11036;BME280;5571;48.110;-1.706;2022-07-23T12:43:11;101707.53;;;27.03;44.49
11036;BME280;5571;48.110;-1.706;2022-07-23T12:48:14;101698.41;;;26.54;45.18
11036;BME280;5571;48.110;-1.706;2022-07-23T12:50:49;101711.94;;;26.70;45.25
11036;BME280;5571;48.110;-1.706;2022-07-23T12:53:18;101706.41;;;26.72;44.76
11036;BME280;5571;48.110;-1.706;2022-07-23T12:55:45;101697.88;;;26.17;45.61
11036;BME280;5571;48.110;-1.706;2022-07-23T12:58:19;101696.66;;;25.85;45.45
11036;BME280;5571;48.110;-1.706;2022-07-23T13:03:29;101696.25;;;26.24;43.96
11036;BME280;5571;48.110;-1.706;2022-07-23T13:05:55;101690.81;;;26.50;43.90
11036;BME280;5571;48.110;-1.706;2022-07-23T13:08:21;101697.09;;;26.66;43.20
11036;BME280;5571;48.110;-1.706;2022-07-23T13:10:47;101689.44;;;26.88;41.72
11036;BME280;5571;48.110;-1.706;2022-07-23T13:13:15;101696.38;;;27.06;41.59
11036;BME280;5571;48.110;-1.706;2022-07-23T13:15:41;101686.13;;;27.18;40.89
11036;BME280;5571;48.110;-1.706;2022-07-23T13:18:07;101686.31;;;27.41;40.43